createdAt,value
2016-07-02T00:00:11.241Z,1004.45
2016-07-02T00:01:11.249Z,1004.43
2016-07-02T00:02:11.253Z,1004.4
2016-07-02T00:03:11.257Z,1004.41
2016-07-02T00:04:11.261Z,1004.42
2016-07-02T00:05:11.268Z,1004.42
2016-07-02T00:06:11.272Z,1004.37
2016-07-02T00:07:11.276Z,1004.33
2016-07-02T00:08:11.280Z,1004.32
2016-07-02T00:09:11.288Z,1004.31
2016-07-02T00:10:11.291Z,1004.24
2016-07-02T00:11:11.295Z,1004.28
2016-07-02T00:12:11.301Z,1004.26
2016-07-02T00:13:11.305Z,1004.34
2016-07-02T00:14:11.310Z,1004.37
2016-07-02T00:15:11.317Z,1004.35
2016-07-02T00:16:11.323Z,1004.37
2016-07-02T00:17:11.326Z,1004.38
2016-07-02T00:18:11.330Z,1004.41
2016-07-02T00:19:11.335Z,1004.34
2016-07-02T00:20:11.339Z,1004.37
2016-07-02T00:21:11.343Z,1004.35
2016-07-02T00:22:11.347Z,1004.29
2016-07-02T00:23:11.354Z,1004.31
2016-07-02T00:24:11.358Z,1004.34
2016-07-02T00:25:11.363Z,1004.35
2016-07-02T00:26:11.368Z,1004.32
2016-07-02T00:27:11.376Z,1004.36
2016-07-02T00:28:11.378Z,1004.34
2016-07-02T00:29:11.382Z,1004.34
2016-07-02T00:30:11.387Z,1004.38
2016-07-02T00:31:11.393Z,1004.31
2016-07-02T00:32:11.397Z,1004.29
2016-07-02T00:33:11.403Z,1004.4
2016-07-02T00:34:11.407Z,1004.35
2016-07-02T00:35:11.411Z,1004.4
2016-07-02T00:36:11.418Z,1004.41
2016-07-02T00:37:11.421Z,1004.4
2016-07-02T00:38:11.427Z,1004.43
2016-07-02T00:39:11.430Z,1004.44
2016-07-02T00:40:11.432Z,1004.4
2016-07-02T00:41:11.442Z,1004.52
2016-07-02T00:42:11.444Z,1004.45
2016-07-02T00:43:11.450Z,1004.47
2016-07-02T00:44:11.456Z,1004.47
2016-07-02T00:45:11.461Z,1004.48
2016-07-02T00:46:11.464Z,1004.45
2016-07-02T00:47:11.469Z,1004.46
2016-07-02T00:48:11.476Z,1004.43
2016-07-02T00:49:11.482Z,1004.43
2016-07-02T00:50:11.486Z,1004.4
2016-07-02T00:51:11.492Z,1004.38
2016-07-02T00:52:11.499Z,1004.43
2016-07-02T00:53:11.503Z,1004.37
2016-07-02T00:54:11.508Z,1004.41
2016-07-02T00:55:11.512Z,1004.39
2016-07-02T00:56:11.518Z,1004.37
2016-07-02T00:57:11.523Z,1004.39
2016-07-02T00:58:11.528Z,1004.46
2016-07-02T00:59:11.534Z,1004.38
2016-07-02T01:00:11.539Z,1004.42
2016-07-02T01:02:11.548Z,1004.45
2016-07-02T01:03:11.553Z,1004.44
2016-07-02T01:04:11.559Z,1004.42
2016-07-02T01:05:11.563Z,1004.42
2016-07-02T01:06:11.569Z,1004.44
2016-07-02T01:07:11.573Z,1004.45
2016-07-02T01:08:11.579Z,1004.45
2016-07-02T01:09:11.584Z,1004.51
2016-07-02T01:10:11.588Z,1004.51
2016-07-02T01:11:11.594Z,1004.54
2016-07-02T01:12:11.598Z,1004.52
2016-07-02T01:13:11.603Z,1004.54
2016-07-02T01:14:11.608Z,1004.53
2016-07-02T01:15:11.613Z,1004.56
2016-07-02T01:16:11.616Z,1004.61
2016-07-02T01:17:11.618Z,1004.58
2016-07-02T01:18:11.626Z,1004.54
2016-07-02T01:19:11.631Z,1004.52
2016-07-02T01:20:11.636Z,1004.5
2016-07-02T01:21:11.640Z,1004.49
2016-07-02T01:22:11.646Z,1004.48
2016-07-02T01:23:11.650Z,1004.46
2016-07-02T01:24:11.656Z,1004.47
2016-07-02T01:25:11.661Z,1004.49
2016-07-02T01:26:11.666Z,1004.49
2016-07-02T01:27:11.670Z,1004.5
2016-07-02T01:28:11.672Z,1004.42
2016-07-02T01:29:11.681Z,1004.46
2016-07-02T01:30:11.685Z,1004.47
2016-07-02T01:31:11.686Z,1004.42
2016-07-02T01:32:11.695Z,1004.42
2016-07-02T01:33:11.698Z,1004.42
2016-07-02T01:34:11.702Z,1004.42
2016-07-02T01:35:11.706Z,1004.39
2016-07-02T01:36:11.710Z,1004.44
2016-07-02T01:37:11.715Z,1004.47
2016-07-02T01:38:11.720Z,1004.47
2016-07-02T01:39:11.725Z,1004.52
2016-07-02T01:40:11.729Z,1004.44
2016-07-02T01:41:11.738Z,1004.59
2016-07-02T01:42:11.741Z,1004.63
2016-07-02T01:43:11.742Z,1004.58
2016-07-02T01:44:11.748Z,1004.6
2016-07-02T01:45:11.752Z,1004.62
2016-07-02T01:46:11.757Z,1004.71
2016-07-02T01:47:11.763Z,1004.69
2016-07-02T01:48:11.766Z,1004.75
2016-07-02T01:49:11.771Z,1004.76
2016-07-02T01:50:11.776Z,1004.77
2016-07-02T01:51:11.782Z,1004.82
2016-07-02T01:52:11.785Z,1004.83
2016-07-02T01:53:11.791Z,1004.86
2016-07-02T01:54:11.799Z,1004.92
2016-07-02T01:55:11.798Z,1004.86
2016-07-02T01:56:11.806Z,1004.82
2016-07-02T01:57:11.808Z,1004.84
2016-07-02T01:58:11.814Z,1004.89
2016-07-02T01:59:11.820Z,1004.92
2016-07-02T02:00:11.824Z,1004.96
2016-07-02T02:01:11.839Z,1004.91
2016-07-02T02:02:11.843Z,1004.91
2016-07-02T02:03:11.840Z,1004.96
2016-07-02T02:04:11.850Z,1005.03
2016-07-02T02:05:11.850Z,1005
2016-07-02T02:06:11.855Z,1005.03
2016-07-02T02:07:11.859Z,1005.01
2016-07-02T02:08:11.864Z,1005.06
2016-07-02T02:09:11.870Z,1004.98
2016-07-02T02:10:11.873Z,1005.01
2016-07-02T02:11:11.879Z,1004.98
2016-07-02T02:12:11.884Z,1005.02
2016-07-02T02:13:11.887Z,1004.97
2016-07-02T02:14:11.893Z,1004.99
2016-07-02T02:15:11.897Z,1004.98
2016-07-02T02:16:11.902Z,1005.03
2016-07-02T02:17:11.908Z,1005.08
2016-07-02T02:18:11.912Z,1005.1
2016-07-02T02:19:11.916Z,1005.13
2016-07-02T02:20:11.919Z,1005.14
2016-07-02T02:21:11.926Z,1005.15
2016-07-02T02:22:11.931Z,1005.13
2016-07-02T02:23:11.937Z,1005.17
2016-07-02T02:24:11.942Z,1005.12
2016-07-02T02:25:11.943Z,1005.1
2016-07-02T02:26:11.950Z,1005.08
2016-07-02T02:27:11.956Z,1005.1
2016-07-02T02:28:11.961Z,1005.1
2016-07-02T02:29:11.966Z,1005.14
2016-07-02T02:30:11.970Z,1005.1
2016-07-02T02:31:11.974Z,1005.13
2016-07-02T02:32:11.978Z,1005.16
2016-07-02T02:33:11.982Z,1005.19
2016-07-02T02:34:11.988Z,1005.22
2016-07-02T02:35:11.993Z,1005.26
2016-07-02T02:36:11.997Z,1005.23
2016-07-02T02:37:12.000Z,1005.25
2016-07-02T02:38:12.025Z,1005.22
2016-07-02T02:39:12.013Z,1005.24
2016-07-02T02:40:12.017Z,1005.2
2016-07-02T02:41:12.021Z,1005.18
2016-07-02T02:42:12.077Z,1005.1
2016-07-02T02:43:12.028Z,1005.15
2016-07-02T02:44:12.036Z,1005.2
2016-07-02T02:45:12.038Z,1005.23
2016-07-02T02:46:12.047Z,1005.26
2016-07-02T02:47:12.046Z,1005.26
2016-07-02T02:48:12.051Z,1005.32
2016-07-02T02:49:12.056Z,1005.3
2016-07-02T02:50:12.061Z,1005.35
2016-07-02T02:51:12.065Z,1005.39
2016-07-02T02:52:12.070Z,1005.43
2016-07-02T02:53:12.073Z,1005.42
2016-07-02T02:54:12.076Z,1005.39
2016-07-02T02:55:12.081Z,1005.41
2016-07-02T02:56:12.086Z,1005.41
2016-07-02T02:57:12.089Z,1005.4
2016-07-02T02:58:12.098Z,1005.39
2016-07-02T02:59:12.098Z,1005.49
2016-07-02T03:00:12.103Z,1005.49
2016-07-02T03:01:12.108Z,1005.53
2016-07-02T03:02:12.111Z,1005.45
2016-07-02T03:03:12.116Z,1005.5
2016-07-02T03:04:12.120Z,1005.46
2016-07-02T03:05:12.124Z,1005.5
2016-07-02T03:06:12.127Z,1005.52
2016-07-02T03:07:12.133Z,1005.51
2016-07-02T03:08:12.137Z,1005.52
2016-07-02T03:09:12.142Z,1005.53
2016-07-02T03:10:12.145Z,1005.51
2016-07-02T03:11:12.149Z,1005.55
2016-07-02T03:12:12.154Z,1005.53
2016-07-02T03:13:12.158Z,1005.54
2016-07-02T03:14:12.163Z,1005.53
2016-07-02T03:15:12.168Z,1005.54
2016-07-02T03:16:12.173Z,1005.53
2016-07-02T03:17:12.177Z,1005.53
2016-07-02T03:18:12.181Z,1005.56
2016-07-02T03:19:12.186Z,1005.56
2016-07-02T03:20:12.188Z,1005.57
2016-07-02T03:21:12.194Z,1005.62
2016-07-02T03:22:12.195Z,1005.6
2016-07-02T03:23:12.201Z,1005.66
2016-07-02T03:24:12.206Z,1005.73
2016-07-02T03:25:12.211Z,1005.76
2016-07-02T03:26:12.212Z,1005.69
2016-07-02T03:27:12.217Z,1005.69
2016-07-02T03:28:12.221Z,1005.6
2016-07-02T03:29:12.226Z,1005.64
2016-07-02T03:30:12.231Z,1005.69
2016-07-02T03:31:12.236Z,1005.69
2016-07-02T03:32:12.238Z,1005.61
2016-07-02T03:33:12.244Z,1005.59
2016-07-02T03:34:12.245Z,1005.6
2016-07-02T03:35:12.253Z,1005.58
2016-07-02T03:36:12.256Z,1005.65
2016-07-02T03:37:12.261Z,1005.71
2016-07-02T03:38:12.262Z,1005.66
2016-07-02T03:39:12.268Z,1005.57
2016-07-02T03:40:12.287Z,1005.6
2016-07-02T03:41:12.278Z,1005.55
2016-07-02T03:42:12.281Z,1005.57
2016-07-02T03:43:12.286Z,1005.56
2016-07-02T03:44:12.290Z,1005.59
2016-07-02T03:45:12.293Z,1005.66
2016-07-02T03:46:12.300Z,1005.74
2016-07-02T03:47:12.302Z,1005.78
2016-07-02T03:48:12.308Z,1005.71
2016-07-02T03:49:12.311Z,1005.72
2016-07-02T03:50:12.316Z,1005.67
2016-07-02T03:51:12.325Z,1005.65
2016-07-02T03:52:12.326Z,1005.72
2016-07-02T03:53:12.327Z,1005.71
2016-07-02T03:54:12.335Z,1005.71
2016-07-02T03:55:12.339Z,1005.77
2016-07-02T03:56:12.343Z,1005.72
2016-07-02T03:57:12.350Z,1005.63
2016-07-02T03:58:12.354Z,1005.57
2016-07-02T03:59:12.359Z,1005.56
2016-07-02T04:00:12.363Z,1005.58
2016-07-02T04:01:12.371Z,1005.62
2016-07-02T04:02:12.373Z,1005.79
2016-07-02T04:03:12.376Z,1005.87
2016-07-02T04:04:12.381Z,1005.91
2016-07-02T04:05:12.386Z,1005.88
2016-07-02T04:06:12.391Z,1005.87
2016-07-02T04:07:12.394Z,1005.84
2016-07-02T04:08:12.400Z,1005.85
2016-07-02T04:09:12.403Z,1005.91
2016-07-02T04:10:12.410Z,1005.92
2016-07-02T04:11:12.413Z,1005.94
2016-07-02T04:12:12.418Z,1005.94
2016-07-02T04:13:12.420Z,1005.91
2016-07-02T04:14:12.427Z,1005.88
2016-07-02T04:15:12.430Z,1005.95
2016-07-02T04:16:12.435Z,1005.95
2016-07-02T04:17:12.443Z,1006
2016-07-02T04:18:12.443Z,1006
2016-07-02T04:19:12.446Z,1006.02
2016-07-02T04:20:12.453Z,1006.02
2016-07-02T04:21:12.456Z,1005.98
2016-07-02T04:22:12.460Z,1005.96
2016-07-02T04:23:12.464Z,1005.92
2016-07-02T04:24:12.470Z,1005.97
2016-07-02T04:25:12.473Z,1005.94
2016-07-02T04:26:12.479Z,1006.02
2016-07-02T04:27:12.482Z,1006.06
2016-07-02T04:28:12.488Z,1006.05
2016-07-02T04:29:12.491Z,1006.06
2016-07-02T04:30:12.497Z,1006.03
2016-07-02T04:31:12.501Z,1006.07
2016-07-02T04:32:12.506Z,1006.04
2016-07-02T04:33:12.510Z,1006.05
2016-07-02T04:34:12.518Z,1006.07
2016-07-02T04:35:12.518Z,1006.03
2016-07-02T04:36:12.525Z,1005.97
2016-07-02T04:37:12.530Z,1005.92
2016-07-02T04:38:12.534Z,1005.87
2016-07-02T04:39:12.536Z,1005.83
2016-07-02T04:40:12.545Z,1005.89
2016-07-02T04:41:12.546Z,1005.97
2016-07-02T04:42:12.555Z,1005.97
2016-07-02T04:43:12.559Z,1005.96
2016-07-02T04:44:12.562Z,1005.98
2016-07-02T04:45:12.568Z,1006.01
2016-07-02T04:46:12.572Z,1005.97
2016-07-02T04:47:12.577Z,1005.93
2016-07-02T04:48:12.580Z,1005.89
2016-07-02T04:49:12.586Z,1005.91
2016-07-02T04:50:12.591Z,1005.89
2016-07-02T04:51:12.594Z,1005.94
2016-07-02T04:52:12.599Z,1005.93
2016-07-02T04:53:12.604Z,1005.94
2016-07-02T04:54:12.608Z,1006
2016-07-02T04:55:12.613Z,1006
2016-07-02T04:56:12.616Z,1006.05
2016-07-02T04:57:12.621Z,1006.01
2016-07-02T04:58:12.624Z,1005.92
2016-07-02T04:59:12.632Z,1005.97
2016-07-02T05:00:12.636Z,1006.03
2016-07-02T05:01:12.641Z,1005.98
2016-07-02T05:02:12.655Z,1005.98
2016-07-02T05:03:12.650Z,1006.01
2016-07-02T05:04:12.655Z,1006.04
2016-07-02T05:05:12.660Z,1006.07
2016-07-02T05:06:12.663Z,1006.11
2016-07-02T05:07:12.667Z,1006.14
2016-07-02T05:08:12.670Z,1006.17
2016-07-02T05:09:12.674Z,1006.08
2016-07-02T05:10:12.678Z,1006.09
2016-07-02T05:11:12.682Z,1006.12
2016-07-02T05:12:12.691Z,1006.1
2016-07-02T05:13:12.692Z,1006.16
2016-07-02T05:14:12.697Z,1006.16
2016-07-02T05:15:12.702Z,1006.19
2016-07-02T05:16:12.705Z,1006.19
2016-07-02T05:17:12.707Z,1006.15
2016-07-02T05:18:12.709Z,1006.19
2016-07-02T05:19:12.714Z,1006.23
2016-07-02T05:20:12.720Z,1006.29
2016-07-02T05:21:12.725Z,1006.33
2016-07-02T05:22:12.729Z,1006.34
2016-07-02T05:23:12.733Z,1006.3
2016-07-02T05:24:12.736Z,1006.29
2016-07-02T05:25:12.742Z,1006.27
2016-07-02T05:26:12.746Z,1006.24
2016-07-02T05:27:12.749Z,1006.13
2016-07-02T05:28:12.752Z,1006.13
2016-07-02T05:29:12.756Z,1006.17
2016-07-02T05:30:12.760Z,1006.2
2016-07-02T05:31:12.764Z,1006.18
2016-07-02T05:32:12.768Z,1006.22
2016-07-02T05:33:12.773Z,1006.19
2016-07-02T05:34:12.777Z,1006.26
2016-07-02T05:35:12.780Z,1006.27
2016-07-02T05:36:12.786Z,1006.27
2016-07-02T05:37:12.789Z,1006.28
2016-07-02T05:38:12.795Z,1006.31
2016-07-02T05:39:12.810Z,1006.27
2016-07-02T05:40:12.800Z,1006.24
2016-07-02T05:41:12.805Z,1006.25
2016-07-02T05:42:12.808Z,1006.26
2016-07-02T05:43:12.813Z,1006.35
2016-07-02T05:44:12.816Z,1006.35
2016-07-02T05:45:12.820Z,1006.35
2016-07-02T05:46:12.824Z,1006.38
2016-07-02T05:47:12.828Z,1006.38
2016-07-02T05:48:12.831Z,1006.42
2016-07-02T05:49:12.836Z,1006.39
2016-07-02T05:50:12.837Z,1006.39
2016-07-02T05:51:12.843Z,1006.45
2016-07-02T05:52:12.846Z,1006.43
2016-07-02T05:53:12.850Z,1006.49
2016-07-02T05:54:12.855Z,1006.52
2016-07-02T05:55:12.858Z,1006.61
2016-07-02T05:56:12.863Z,1006.6
2016-07-02T05:57:12.867Z,1006.62
2016-07-02T05:58:12.870Z,1006.59
2016-07-02T05:59:12.875Z,1006.56
2016-07-02T06:00:12.879Z,1006.53
2016-07-02T06:01:12.882Z,1006.53
2016-07-02T06:02:12.886Z,1006.56
2016-07-02T06:03:12.888Z,1006.49
2016-07-02T06:04:12.893Z,1006.56
2016-07-02T06:05:12.898Z,1006.5
2016-07-02T06:06:12.901Z,1006.51
2016-07-02T06:07:12.906Z,1006.54
2016-07-02T06:08:12.908Z,1006.5
2016-07-02T06:09:12.913Z,1006.53
2016-07-02T06:10:12.917Z,1006.48
2016-07-02T06:11:12.923Z,1006.55
2016-07-02T06:12:12.927Z,1006.58
2016-07-02T06:13:12.930Z,1006.66
2016-07-02T06:14:12.934Z,1006.62
2016-07-02T06:15:12.940Z,1006.61
2016-07-02T06:16:12.944Z,1006.61
2016-07-02T06:17:12.948Z,1006.6
2016-07-02T06:18:12.950Z,1006.64
2016-07-02T06:19:12.957Z,1006.63
2016-07-02T06:20:12.962Z,1006.63
2016-07-02T06:21:12.967Z,1006.6
2016-07-02T06:22:12.970Z,1006.57
2016-07-02T06:23:12.975Z,1006.55
2016-07-02T06:24:12.981Z,1006.64
2016-07-02T06:25:12.982Z,1006.67
2016-07-02T06:26:12.990Z,1006.68
2016-07-02T06:27:12.992Z,1006.66
2016-07-02T06:28:12.998Z,1006.63
2016-07-02T06:29:13.003Z,1006.64
2016-07-02T06:30:13.005Z,1006.65
2016-07-02T06:31:13.012Z,1006.63
2016-07-02T06:32:13.017Z,1006.65
2016-07-02T06:33:13.020Z,1006.7
2016-07-02T06:34:13.026Z,1006.65
2016-07-02T06:35:13.029Z,1006.65
2016-07-02T06:36:13.034Z,1006.67
2016-07-02T06:37:13.038Z,1006.71
2016-07-02T06:38:13.043Z,1006.71
2016-07-02T06:39:13.047Z,1006.72
2016-07-02T06:40:13.052Z,1006.7
2016-07-02T06:41:13.055Z,1006.7
2016-07-02T06:42:13.059Z,1006.73
2016-07-02T06:43:13.114Z,1006.74
2016-07-02T06:44:13.066Z,1006.78
2016-07-02T06:45:13.073Z,1006.8
2016-07-02T06:46:13.078Z,1006.81
2016-07-02T06:47:13.083Z,1006.86
2016-07-02T06:48:13.086Z,1006.83
2016-07-02T06:49:13.103Z,1006.8
2016-07-02T06:50:13.094Z,1006.78
2016-07-02T06:51:13.100Z,1006.83
2016-07-02T06:52:13.112Z,1006.86
2016-07-02T06:53:13.110Z,1006.83
2016-07-02T06:54:13.119Z,1006.89
2016-07-02T06:55:13.117Z,1006.91
2016-07-02T06:56:13.122Z,1006.91
2016-07-02T06:57:13.127Z,1006.87
2016-07-02T06:58:13.137Z,1006.92
2016-07-02T06:59:13.136Z,1006.88
2016-07-02T07:00:13.140Z,1006.88
2016-07-02T07:01:13.146Z,1006.93
2016-07-02T07:02:13.149Z,1006.94
2016-07-02T07:03:13.154Z,1006.97
2016-07-02T07:04:13.155Z,1006.98
2016-07-02T07:05:13.161Z,1006.94
2016-07-02T07:06:13.164Z,1006.93
2016-07-02T07:07:13.172Z,1007.02
2016-07-02T07:08:13.175Z,1007.03
2016-07-02T07:09:13.181Z,1007.1
2016-07-02T07:10:13.183Z,1007.06
2016-07-02T07:11:13.187Z,1007.14
2016-07-02T07:12:13.192Z,1007.2
2016-07-02T07:13:13.195Z,1007.28
2016-07-02T07:14:13.198Z,1007.27
2016-07-02T07:15:13.206Z,1007.23
2016-07-02T07:16:13.211Z,1007.3
2016-07-02T07:17:13.222Z,1007.25
2016-07-02T07:18:13.218Z,1007.28
2016-07-02T07:19:13.223Z,1007.28
2016-07-02T07:20:13.228Z,1007.33
2016-07-02T07:21:13.232Z,1007.3
2016-07-02T07:22:13.236Z,1007.27
2016-07-02T07:23:13.239Z,1007.26
2016-07-02T07:24:13.247Z,1007.26
2016-07-02T07:25:13.250Z,1007.25
2016-07-02T07:26:13.255Z,1007.28
2016-07-02T07:27:13.259Z,1007.27
2016-07-02T07:28:13.263Z,1007.26
2016-07-02T07:29:13.266Z,1007.27
2016-07-02T07:30:13.274Z,1007.21
2016-07-02T07:31:13.278Z,1007.2
2016-07-02T07:32:13.279Z,1007.23
2016-07-02T07:33:13.286Z,1007.18
2016-07-02T07:34:13.290Z,1007.22
2016-07-02T07:35:13.294Z,1007.27
2016-07-02T07:36:13.297Z,1007.32
2016-07-02T07:37:13.301Z,1007.34
2016-07-02T07:38:13.305Z,1007.37
2016-07-02T07:39:13.309Z,1007.38
2016-07-02T07:40:13.312Z,1007.41
2016-07-02T07:41:13.319Z,1007.4
2016-07-02T07:42:13.371Z,1007.36
2016-07-02T07:43:13.378Z,1007.37
2016-07-02T07:44:13.331Z,1007.32
2016-07-02T07:45:13.337Z,1007.29
2016-07-02T07:46:13.341Z,1007.36
2016-07-02T07:47:13.346Z,1007.33
2016-07-02T07:48:13.350Z,1007.38
2016-07-02T07:49:13.355Z,1007.36
2016-07-02T07:50:13.358Z,1007.42
2016-07-02T07:51:13.364Z,1007.38
2016-07-02T07:52:13.369Z,1007.42
2016-07-02T07:53:13.373Z,1007.42
2016-07-02T07:54:13.378Z,1007.43
2016-07-02T07:55:13.379Z,1007.35
2016-07-02T07:56:13.387Z,1007.41
2016-07-02T07:57:13.392Z,1007.42
2016-07-02T07:58:13.395Z,1007.41
2016-07-02T07:59:13.398Z,1007.42
2016-07-02T08:00:13.407Z,1007.41
2016-07-02T08:01:13.410Z,1007.49
2016-07-02T08:02:13.415Z,1007.42
2016-07-02T08:03:13.417Z,1007.43
2016-07-02T08:04:13.425Z,1007.47
2016-07-02T08:05:13.428Z,1007.47
2016-07-02T08:06:13.431Z,1007.46
2016-07-02T08:07:13.438Z,1007.43
2016-07-02T08:08:13.442Z,1007.4
2016-07-02T08:09:13.447Z,1007.39
2016-07-02T08:10:13.450Z,1007.41
2016-07-02T08:11:13.457Z,1007.46
2016-07-02T08:12:13.461Z,1007.43
2016-07-02T08:13:13.465Z,1007.48
2016-07-02T08:14:13.470Z,1007.45
2016-07-02T08:15:13.475Z,1007.49
2016-07-02T08:16:13.480Z,1007.46
2016-07-02T08:17:13.484Z,1007.46
2016-07-02T08:18:13.489Z,1007.46
2016-07-02T08:19:13.493Z,1007.47
2016-07-02T08:20:13.498Z,1007.46
2016-07-02T08:21:13.503Z,1007.48
2016-07-02T08:22:13.508Z,1007.52
2016-07-02T08:23:13.512Z,1007.48
2016-07-02T08:24:13.517Z,1007.51
2016-07-02T08:25:13.521Z,1007.55
2016-07-02T08:26:13.527Z,1007.51
2016-07-02T08:27:13.531Z,1007.53
2016-07-02T08:28:13.536Z,1007.47
2016-07-02T08:29:13.540Z,1007.49
2016-07-02T08:30:13.545Z,1007.47
2016-07-02T08:31:13.549Z,1007.47
2016-07-02T08:32:13.555Z,1007.44
2016-07-02T08:33:13.560Z,1007.39
2016-07-02T08:34:13.562Z,1007.37
2016-07-02T08:35:13.569Z,1007.38
2016-07-02T08:36:13.574Z,1007.38
2016-07-02T08:37:13.579Z,1007.4
2016-07-02T08:38:13.581Z,1007.39
2016-07-02T08:39:13.588Z,1007.45
2016-07-02T08:40:13.591Z,1007.45
2016-07-02T08:41:13.598Z,1007.45
2016-07-02T08:42:13.604Z,1007.49
2016-07-02T08:43:13.604Z,1007.49
2016-07-02T08:44:13.613Z,1007.52
2016-07-02T08:45:13.613Z,1007.51
2016-07-02T08:46:13.621Z,1007.44
2016-07-02T08:47:13.626Z,1007.43
2016-07-02T08:48:13.628Z,1007.5
2016-07-02T08:49:13.633Z,1007.48
2016-07-02T08:50:13.639Z,1007.49
2016-07-02T08:51:13.643Z,1007.49
2016-07-02T08:52:13.648Z,1007.55
2016-07-02T08:53:13.655Z,1007.51
2016-07-02T08:54:13.658Z,1007.55
2016-07-02T08:55:13.664Z,1007.52
2016-07-02T08:56:13.668Z,1007.51
2016-07-02T08:57:13.673Z,1007.57
2016-07-02T08:58:13.681Z,1007.59
2016-07-02T08:59:13.686Z,1007.6
2016-07-02T09:00:13.693Z,1007.62
2016-07-02T09:01:13.696Z,1007.63
2016-07-02T09:02:13.700Z,1007.59
2016-07-02T09:03:13.707Z,1007.61
2016-07-02T09:04:13.709Z,1007.64
2016-07-02T09:05:13.716Z,1007.62
2016-07-02T09:06:13.720Z,1007.63
2016-07-02T09:07:13.725Z,1007.73
2016-07-02T09:08:13.734Z,1007.66
2016-07-02T09:09:13.739Z,1007.68
2016-07-02T09:10:13.744Z,1007.68
2016-07-02T09:11:13.749Z,1007.72
2016-07-02T09:12:13.751Z,1007.71
2016-07-02T09:13:13.760Z,1007.77
2016-07-02T09:14:13.763Z,1007.78
2016-07-02T09:15:13.768Z,1007.8
2016-07-02T09:16:13.774Z,1007.84
2016-07-02T09:17:13.776Z,1007.81
2016-07-02T09:18:13.783Z,1007.78
2016-07-02T09:19:13.785Z,1007.78
2016-07-02T09:20:13.791Z,1007.73
2016-07-02T09:21:13.795Z,1007.73
2016-07-02T09:22:13.802Z,1007.77
2016-07-02T09:23:13.809Z,1007.75
2016-07-02T09:24:13.812Z,1007.74
2016-07-02T09:25:13.816Z,1007.71
2016-07-02T09:26:13.820Z,1007.72
2016-07-02T09:27:13.825Z,1007.7
2016-07-02T09:28:13.830Z,1007.75
2016-07-02T09:29:13.835Z,1007.67
2016-07-02T09:30:13.839Z,1007.63
2016-07-02T09:31:13.842Z,1007.65
2016-07-02T09:32:13.850Z,1007.59
2016-07-02T09:33:13.854Z,1007.63
2016-07-02T09:34:13.864Z,1007.64
2016-07-02T09:35:13.864Z,1007.64
2016-07-02T09:36:13.866Z,1007.63
2016-07-02T09:37:13.871Z,1007.64
2016-07-02T09:38:13.878Z,1007.61
2016-07-02T09:39:13.881Z,1007.65
2016-07-02T09:40:13.887Z,1007.65
2016-07-02T09:41:13.893Z,1007.67
2016-07-02T09:42:13.895Z,1007.69
2016-07-02T09:43:13.902Z,1007.69
2016-07-02T09:44:13.906Z,1007.56
2016-07-02T09:45:13.913Z,1007.62
2016-07-02T09:46:13.920Z,1007.58
2016-07-02T09:47:13.925Z,1007.61
2016-07-02T09:48:13.930Z,1007.57
2016-07-02T09:49:13.932Z,1007.6
2016-07-02T09:50:13.940Z,1007.54
2016-07-02T09:51:13.941Z,1007.59
2016-07-02T09:52:13.950Z,1007.55
2016-07-02T09:53:13.952Z,1007.59
2016-07-02T09:54:13.959Z,1007.6
2016-07-02T09:55:13.964Z,1007.6
2016-07-02T09:56:13.968Z,1007.61
2016-07-02T09:57:13.977Z,1007.62
2016-07-02T09:58:13.977Z,1007.55
2016-07-02T09:59:13.984Z,1007.59
2016-07-02T10:00:13.988Z,1007.56
2016-07-02T10:01:13.996Z,1007.53
2016-07-02T10:02:14.001Z,1007.53
2016-07-02T10:03:14.006Z,1007.62
2016-07-02T10:04:14.013Z,1007.57
2016-07-02T10:05:14.016Z,1007.54
2016-07-02T10:06:14.019Z,1007.57
2016-07-02T10:07:14.024Z,1007.62
2016-07-02T10:08:14.033Z,1007.64
2016-07-02T10:09:14.038Z,1007.58
2016-07-02T10:10:14.039Z,1007.59
2016-07-02T10:11:14.044Z,1007.57
2016-07-02T10:12:14.050Z,1007.63
2016-07-02T10:13:14.056Z,1007.54
2016-07-02T10:14:14.061Z,1007.57
2016-07-02T10:15:14.068Z,1007.52
2016-07-02T10:16:14.072Z,1007.54
2016-07-02T10:17:14.074Z,1007.58
2016-07-02T10:18:14.081Z,1007.49
2016-07-02T10:19:14.084Z,1007.5
2016-07-02T10:20:14.088Z,1007.57
2016-07-02T10:21:14.103Z,1007.56
2016-07-02T10:22:14.103Z,1007.55
2016-07-02T10:23:14.106Z,1007.55
2016-07-02T10:24:14.117Z,1007.49
2016-07-02T10:25:14.117Z,1007.52
2016-07-02T10:26:14.123Z,1007.51
2016-07-02T10:27:14.125Z,1007.53
2016-07-02T10:28:14.135Z,1007.61
2016-07-02T10:29:14.136Z,1007.57
2016-07-02T10:30:14.139Z,1007.59
2016-07-02T10:31:14.150Z,1007.49
2016-07-02T10:32:14.148Z,1007.53
2016-07-02T10:33:14.158Z,1007.53
2016-07-02T10:34:14.161Z,1007.51
2016-07-02T10:35:14.165Z,1007.47
2016-07-02T10:36:14.172Z,1007.5
2016-07-02T10:37:14.176Z,1007.51
2016-07-02T10:38:14.181Z,1007.47
2016-07-02T10:39:14.190Z,1007.48
2016-07-02T10:40:14.190Z,1007.47
2016-07-02T10:41:14.197Z,1007.49
2016-07-02T10:42:14.200Z,1007.51
2016-07-02T10:43:14.207Z,1007.47
2016-07-02T10:44:14.212Z,1007.49
2016-07-02T10:45:14.268Z,1007.48
2016-07-02T10:46:14.221Z,1007.49
2016-07-02T10:47:14.227Z,1007.48
2016-07-02T10:48:14.233Z,1007.58
2016-07-02T10:49:14.239Z,1007.57
2016-07-02T10:50:14.243Z,1007.57
2016-07-02T10:51:14.247Z,1007.63
2016-07-02T10:52:14.253Z,1007.64
2016-07-02T10:53:14.258Z,1007.65
2016-07-02T10:54:14.263Z,1007.67
2016-07-02T10:55:14.268Z,1007.6
2016-07-02T10:56:14.273Z,1007.65
2016-07-02T10:57:14.278Z,1007.6
2016-07-02T10:58:14.284Z,1007.58
2016-07-02T10:59:14.289Z,1007.52
2016-07-02T11:00:14.293Z,1007.57
2016-07-02T11:01:14.302Z,1007.61
2016-07-02T11:02:14.307Z,1007.52
2016-07-02T11:03:14.312Z,1007.56
2016-07-02T11:04:14.321Z,1007.53
2016-07-02T11:05:14.322Z,1007.54
2016-07-02T11:06:14.328Z,1007.56
2016-07-02T11:07:14.382Z,1007.59
2016-07-02T11:08:14.336Z,1007.58
2016-07-02T11:09:14.342Z,1007.6
2016-07-02T11:10:14.348Z,1007.61
2016-07-02T11:11:14.354Z,1007.62
2016-07-02T11:12:14.358Z,1007.59
2016-07-02T11:13:14.367Z,1007.6
2016-07-02T11:14:14.368Z,1007.61
2016-07-02T11:15:14.372Z,1007.67
2016-07-02T11:16:14.380Z,1007.71
2016-07-02T11:17:14.385Z,1007.78
2016-07-02T11:18:14.389Z,1007.84
2016-07-02T11:19:14.394Z,1007.88
2016-07-02T11:20:14.399Z,1007.89
2016-07-02T11:21:14.408Z,1007.84
2016-07-02T11:22:14.410Z,1007.81
2016-07-02T11:23:14.418Z,1007.8
2016-07-02T11:24:14.420Z,1007.89
2016-07-02T11:25:14.431Z,1007.85
2016-07-02T11:26:14.432Z,1007.85
2016-07-02T11:27:14.440Z,1007.8
2016-07-02T11:28:14.444Z,1007.81
2016-07-02T11:29:14.449Z,1007.79
2016-07-02T11:30:14.454Z,1007.76
2016-07-02T11:31:14.467Z,1007.77
2016-07-02T11:32:14.466Z,1007.77
2016-07-02T11:33:14.474Z,1007.8
2016-07-02T11:34:14.475Z,1007.81
2016-07-02T11:35:14.478Z,1007.77
2016-07-02T11:36:14.487Z,1007.77
2016-07-02T11:37:14.488Z,1007.78
2016-07-02T11:38:14.496Z,1007.75
2016-07-02T11:39:14.502Z,1007.74
2016-07-02T11:40:14.507Z,1007.76
2016-07-02T11:41:14.513Z,1007.69
2016-07-02T11:42:14.518Z,1007.74
2016-07-02T11:43:14.525Z,1007.72
2016-07-02T11:44:14.527Z,1007.75
2016-07-02T11:45:14.533Z,1007.78
2016-07-02T11:46:14.540Z,1007.8
2016-07-02T11:47:14.543Z,1007.75
2016-07-02T11:48:14.551Z,1007.79
2016-07-02T11:49:14.557Z,1007.73
2016-07-02T11:50:14.565Z,1007.7
2016-07-02T11:51:14.570Z,1007.74
2016-07-02T11:52:14.572Z,1007.71
2016-07-02T11:53:14.581Z,1007.74
2016-07-02T11:54:14.586Z,1007.72
2016-07-02T11:55:14.591Z,1007.75
2016-07-02T11:56:14.596Z,1007.76
2016-07-02T11:57:14.602Z,1007.74
2016-07-02T11:58:14.608Z,1007.75
2016-07-02T11:59:14.612Z,1007.8
2016-07-02T12:00:14.620Z,1007.75
2016-07-02T12:01:14.625Z,1007.8
2016-07-02T12:02:14.644Z,1007.85
2016-07-02T12:03:14.635Z,1007.96
2016-07-02T12:04:14.641Z,1008.18
2016-07-02T12:05:14.648Z,1008.17
2016-07-02T12:06:14.650Z,1008.2
2016-07-02T12:07:14.656Z,1008.25
2016-07-02T12:08:14.662Z,1008.23
2016-07-02T12:10:14.671Z,1008.16